Airfield :
LOGIN :

Register | Disclaimer

   EN    FR    IT 

 










Legend :    VFR   Marginal VFR   IFR   Intensive IFR   Very Intensive IFR
Visi :
Ceiling :
>= 8 km
>= 3000ft
5 to 8 km
1000 to 3000 ft
1500m to 5 km
500 to 1000 ft
800 to 1500m
200 to 500 ft
< 800m
< 200 ft
Symbols :   Thunderstorms  Fog  Heavy snow  Heavy precipitations  Wind > 20 kt
SIGMETs :     Misc.  Thunderstorms  Icing  Turbulence  Mountain Waves  Volcanic Ashes







- Airport Elevation : 74 ft
- IATA code : NDZ


ETMN - Cuxhaven Nordholz Sea AB

CURRENT METAR :
  • 222120Z 10006KT 9999 FEW100 05/M03 Q1018 BLU+

EXPIRED METARs :
  • 222020Z 09005KT 9999 FEW100 05/M03 Q1018 BLU+
  • 221950Z 08006KT 9999 FEW100 06/M02 Q1018 BLU+FCST CANCEL
  • 221920Z 08004KT 9999 FEW100 06/M02 Q1018 BLU+BLU+

TAF TAF ETMN
Valid from the 22 at 18:00 until the 23 at 03:00 UTC


221725Z 2218/2303 10005KT 9999 NSW FEW100 SCT250
BECMG 2222/2224 10005KT 9999 NSW BKN100 CANCEL 1950
No reported NOTAMs for that airfield.



MET'MAP, your aeronautical weather chart ! - Copyright ORBIFLY December 2007 - Disclaimer

ORBIFLY MET'MAP TEAM :

Programming & Development : Alexandra Zaïnal
Concept & Development : Baudouin d'Aumeries
Co-Development & Prog : Marc-Olivier Méhu
Technical & hardware support : Manuel Goepfert

Contact : metmap@orbifly.com




SOURCES & CREDITS :

   NOAA